Terminal Aerodrome Forecast
Issued by NWS Lubbock, TX

Home | Current Version | Previous Version | Text Only | Print | Product List | Glossary On
Versions: 1 2 3 4 5 6 7 8 9 10 11 12
000
FTUS44 KLUB 271700
TAFLBB
TAF
KLBB 271728Z 2718/2818 19014KT P6SM SKC
     FM272300 19008KT P6SM SKC
     FM281400 24013KT P6SM FEW250=

USA.gov is the U.S. government's official web portal to all federal, state and local government web resources and services.